Time;durP1;ratioP1;P1;durP2;ratioP2;P2;SDS_P1;SDS_P2;PMS_P1;PMS_P2;Temp;Humidity;BMP_temperature;BMP_pressure;BME280_temperature;BME280_humidity;BME280_pressure;Samples;Min_cycle;Max_cycle;Signal;HPM_P1;HPM_P2
2022/10/17 00:00:09;;;;;;;2.00;1.60;;;;;;;23.14;60.31;98065.47;5050316;28;20223;-31
2022/10/17 00:02:35;;;;;;;1.60;1.50;;;;;;;23.15;60.43;98064.66;5045774;28;20673;-32
2022/10/17 00:05:02;;;;;;;1.43;1.33;;;;;;;23.15;60.25;98072.34;5046547;28;20211;-31
2022/10/17 00:07:29;;;;;;;1.50;1.40;;;;;;;23.13;60.32;98061.16;5049506;28;20205;-31
2022/10/17 00:09:56;;;;;;;1.50;1.40;;;;;;;23.14;60.27;98071.47;5049954;28;20200;-31
2022/10/17 00:12:22;;;;;;;1.40;1.30;;;;;;;23.15;60.30;98073.19;5049238;28;20208;-31
2022/10/17 00:14:49;;;;;;;1.63;1.53;;;;;;;23.12;60.36;98067.97;5049282;28;20377;-32
2022/10/17 00:17:15;;;;;;;1.40;1.30;;;;;;;23.15;60.55;98072.34;5044601;28;20220;-31
2022/10/17 00:19:42;;;;;;;1.83;1.57;;;;;;;23.14;60.49;98068.91;5049734;28;20719;-31
2022/10/17 00:22:08;;;;;;;1.40;1.30;;;;;;;23.15;60.73;98068.06;5047134;28;20204;-31
2022/10/17 00:24:35;;;;;;;1.10;1.10;;;;;;;23.15;60.55;98073.19;5049438;28;20211;-31
2022/10/17 00:27:01;;;;;;;1.60;1.50;;;;;;;23.09;60.57;98062.75;5049884;28;20207;-31
2022/10/17 00:29:28;;;;;;;1.43;1.33;;;;;;;23.16;60.47;98074.09;5047877;28;20239;-31
2022/10/17 00:31:55;;;;;;;1.50;1.40;;;;;;;23.15;60.45;98072.34;5044307;28;20224;-31
2022/10/17 00:34:23;;;;;;;1.67;1.33;;;;;;;23.15;60.50;98074.91;5046566;28;20209;-31
2022/10/17 00:36:49;;;;;;;1.40;1.30;;;;;;;23.09;60.58;98067.00;5049353;28;20205;-31
2022/10/17 00:39:16;;;;;;;1.57;1.47;;;;;;;23.14;60.21;98078.28;5045588;28;20220;-31
2022/10/17 00:41:42;;;;;;;1.53;1.30;;;;;;;23.09;60.55;98064.44;5046790;28;20204;-31
2022/10/17 00:44:27;;;;;;;1.67;1.57;;;;;;;23.15;60.58;98080.06;5054956;28;20224;-32
2022/10/17 00:46:58;;;;;;;1.40;1.30;;;;;;;23.14;60.53;98084.28;5057589;28;20197;-31
2022/10/17 00:49:26;;;;;;;1.47;1.37;;;;;;;23.14;60.51;98079.16;5051842;28;20216;-31
2022/10/17 00:51:57;;;;;;;1.50;1.40;;;;;;;23.08;60.49;98067.84;5052780;28;20227;-31
2022/10/17 00:54:30;;;;;;;1.20;1.20;;;;;;;23.09;60.45;98062.75;5031733;28;20208;-32
2022/10/17 00:56:56;;;;;;;1.40;1.30;;;;;;;23.14;60.40;98080.84;5059452;28;20197;-31
2022/10/17 00:59:23;;;;;;;1.53;1.43;;;;;;;23.14;60.73;98085.97;5048584;28;20239;-32
2022/10/17 01:02:00;;;;;;;1.33;1.23;;;;;;;23.09;60.29;98085.84;5059677;28;20462;-31
2022/10/17 01:04:27;;;;;;;1.47;1.37;;;;;;;23.15;60.52;98095.44;5049370;28;21898;-31
2022/10/17 01:06:53;;;;;;;1.37;1.27;;;;;;;23.14;60.55;98096.22;5045108;28;20205;-31
2022/10/17 01:09:20;;;;;;;1.43;1.33;;;;;;;23.14;60.52;98089.41;5052918;28;20216;-31
2022/10/17 01:11:51;;;;;;;2.23;1.50;;;;;;;23.14;60.47;98096.22;5047531;28;20203;-31
2022/10/17 01:14:45;;;;;;;1.50;1.30;;;;;;;23.10;60.59;98092.72;5041464;28;20201;-32
2022/10/17 01:17:34;;;;;;;1.37;1.23;;;;;;;23.04;60.55;98079.69;5049971;28;20213;-31
2022/10/17 01:20:19;;;;;;;1.33;1.23;;;;;;;23.14;60.45;98101.38;5048739;28;20477;-31
2022/10/17 01:23:06;;;;;;;1.40;1.30;;;;;;;23.14;60.30;98102.25;5045681;28;20201;-31
2022/10/17 01:25:41;;;;;;;1.37;1.27;;;;;;;23.14;60.40;98099.69;5047050;28;20683;-31
2022/10/17 01:28:22;;;;;;;1.57;1.30;;;;;;;23.11;60.54;98091.88;5046302;28;20593;-31
2022/10/17 01:31:02;;;;;;;1.43;1.30;;;;;;;23.14;60.37;98091.09;5028555;28;20194;-31
2022/10/17 01:33:39;;;;;;;1.40;1.30;;;;;;;23.14;60.52;98092.00;5031959;28;20618;-31
2022/10/17 01:36:20;;;;;;;1.50;1.40;;;;;;;23.14;60.46;98094.56;5053058;28;20568;-31
2022/10/17 01:38:59;;;;;;;1.47;1.37;;;;;;;23.14;60.55;98089.41;5034796;28;20722;-31
2022/10/17 01:41:33;;;;;;;1.40;1.30;;;;;;;23.14;60.57;98091.09;5028054;28;20229;-31
2022/10/17 01:44:04;;;;;;;1.40;1.30;;;;;;;23.14;60.49;98088.53;5048197;28;20209;-31
2022/10/17 01:46:42;;;;;;;2.53;1.23;;;;;;;23.14;60.55;98091.09;5040316;28;20203;-31
2022/10/17 01:49:09;;;;;;;1.33;1.23;;;;;;;23.14;60.36;98086.84;5050810;28;20224;-31
2022/10/17 01:51:38;;;;;;;1.30;1.20;;;;;;;23.14;60.57;98083.41;5046450;28;20204;-32
2022/10/17 01:54:08;;;;;;;1.37;1.27;;;;;;;23.15;60.52;98090.31;5052752;28;20212;-31
2022/10/17 01:56:34;;;;;;;1.30;1.20;;;;;;;23.11;60.58;98080.75;5051739;28;20663;-31
2022/10/17 01:59:16;;;;;;;1.40;1.30;;;;;;;23.14;60.36;98080.84;5043630;28;20224;-31
2022/10/17 02:01:43;;;;;;;1.50;1.40;;;;;;;23.14;60.48;98079.16;5052473;28;20707;-31
2022/10/17 02:04:10;;;;;;;1.40;1.30;;;;;;;23.14;60.60;98074.03;5031182;28;20676;-31
2022/10/17 02:06:36;;;;;;;1.40;1.30;;;;;;;23.14;60.27;98076.59;5055553;28;20563;-31
2022/10/17 02:09:25;;;;;;;1.50;1.40;;;;;;;23.14;60.24;98076.59;5055013;28;20229;-31
2022/10/17 02:12:10;;;;;;;1.30;1.20;;;;;;;23.14;60.56;98084.28;5059353;28;20201;-31
2022/10/17 02:14:42;;;;;;;1.30;1.20;;;;;;;23.14;60.61;98084.28;5048067;28;20603;-31
2022/10/17 02:17:31;;;;;;;1.47;1.37;;;;;;;23.14;60.43;98079.16;5054634;28;20207;-31
2022/10/17 02:20:06;;;;;;;1.43;1.33;;;;;;;23.14;60.33;98079.16;5050602;28;20232;-31
2022/10/17 02:22:40;;;;;;;1.40;1.30;;;;;;;23.15;60.27;98075.78;5054195;28;20203;-32
2022/10/17 02:25:26;;;;;;;1.30;1.20;;;;;;;23.15;60.40;98072.34;5056895;28;20205;-32
2022/10/17 02:27:59;;;;;;;1.30;1.20;;;;;;;23.15;60.73;98077.47;5043641;28;20217;-31
2022/10/17 02:30:32;;;;;;;1.30;1.20;;;;;;;23.12;60.45;98078.22;5059600;28;20197;-31
2022/10/17 02:33:11;;;;;;;2.20;1.17;;;;;;;23.14;60.60;98071.47;5035212;28;20208;-31
2022/10/17 02:35:40;;;;;;;1.50;1.40;;;;;;;23.14;60.31;98085.97;5033913;28;20209;-31
2022/10/17 02:38:07;;;;;;;1.40;1.30;;;;;;;23.14;60.58;98081.72;5036261;28;20311;-31
2022/10/17 02:40:33;;;;;;;1.27;1.20;;;;;;;23.14;60.73;98084.28;5059055;28;20623;-31
2022/10/17 02:43:00;;;;;;;1.37;1.20;;;;;;;23.14;60.49;98081.72;5036127;28;20198;-31
2022/10/17 02:45:27;;;;;;;1.27;1.20;;;;;;;23.07;60.64;98072.06;5058314;28;20223;-31
2022/10/17 02:48:15;;;;;;;1.40;1.30;;;;;;;23.14;60.55;98079.16;5030724;28;20231;-31
2022/10/17 02:50:57;;;;;;;1.43;1.33;;;;;;;23.14;60.47;98085.97;5059140;28;20204;-31
2022/10/17 02:53:29;;;;;;;1.30;1.20;;;;;;;23.11;60.68;98080.75;5048817;28;20650;-31
2022/10/17 02:56:00;;;;;;;1.60;1.50;;;;;;;23.02;60.53;98068.53;5054590;28;20201;-31
2022/10/17 02:58:30;;;;;;;1.40;1.30;;;;;;;23.13;60.58;98090.25;5037919;28;20225;-32
2022/10/17 03:00:57;;;;;;;1.30;1.20;;;;;;;23.12;60.70;98091.06;5049031;28;20690;-32
2022/10/17 03:03:25;;;;;;;1.43;1.33;;;;;;;23.10;60.77;98085.03;5039761;28;20201;-31
2022/10/17 03:05:52;;;;;;;1.50;1.40;;;;;;;23.13;60.56;98090.25;5045078;28;20202;-31
2022/10/17 03:08:19;;;;;;;1.37;1.27;;;;;;;23.14;60.61;98093.66;5039955;28;20227;-31
2022/10/17 03:10:45;;;;;;;1.30;1.20;;;;;;;23.13;60.42;98089.38;5044548;28;20229;-31
2022/10/17 03:13:12;;;;;;;1.13;1.10;;;;;;;23.13;60.53;98092.81;5058217;28;20212;-31
2022/10/17 03:15:39;;;;;;;1.40;1.30;;;;;;;23.13;60.63;98099.63;5056299;28;20212;-31
2022/10/17 03:18:05;;;;;;;1.50;1.40;;;;;;;23.14;60.69;98103.94;5050471;28;20228;-31
2022/10/17 03:20:32;;;;;;;1.37;1.27;;;;;;;23.13;60.64;98095.38;5057385;28;20227;-31
2022/10/17 03:22:58;;;;;;;1.40;1.30;;;;;;;23.12;60.50;98103.88;5057641;28;20207;-31
2022/10/17 03:25:25;;;;;;;1.30;1.20;;;;;;;23.11;60.77;98103.81;5052970;28;20208;-31
2022/10/17 03:27:51;;;;;;;1.50;1.40;;;;;;;23.13;60.68;98107.31;5052133;28;20608;-31
2022/10/17 03:30:18;;;;;;;1.60;1.50;;;;;;;23.13;60.59;98108.22;5052273;28;20196;-31
2022/10/17 03:32:45;;;;;;;1.60;1.50;;;;;;;23.14;60.57;98114.19;5054621;28;20214;-31
2022/10/17 03:35:11;;;;;;;1.23;1.20;;;;;;;23.13;60.57;98110.78;5042615;28;20208;-31
2022/10/17 03:37:40;;;;;;;1.50;1.40;;;;;;;23.08;60.54;98107.19;5058433;28;20227;-32
2022/10/17 03:40:07;;;;;;;1.37;1.30;;;;;;;23.12;60.43;98114.13;5052648;28;20230;-31
2022/10/17 03:42:33;;;;;;;1.30;1.20;;;;;;;23.12;60.89;98114.13;5061063;28;20682;-31
2022/10/17 03:45:00;;;;;;;1.97;1.40;;;;;;;23.13;60.54;98115.91;5048967;28;20212;-31
2022/10/17 03:47:27;;;;;;;1.50;1.40;;;;;;;23.06;60.57;98098.56;5050285;28;20576;-31
2022/10/17 03:49:54;;;;;;;1.30;1.20;;;;;;;23.12;60.58;98114.13;5043781;28;20205;-31
2022/10/17 03:52:21;;;;;;;1.30;1.20;;;;;;;23.13;60.71;98121.03;5049012;28;20205;-32
2022/10/17 03:54:48;;;;;;;2.80;1.30;;;;;;;23.12;60.76;98114.13;5051776;28;20205;-31
2022/10/17 03:57:15;;;;;;;1.40;1.30;;;;;;;23.13;60.97;98125.28;5050954;28;20201;-31
2022/10/17 03:59:42;;;;;;;1.17;1.10;;;;;;;23.12;60.75;98126.97;5042923;28;20225;-31
2022/10/17 04:02:08;;;;;;;1.33;1.27;;;;;;;23.13;60.46;98126.16;5045763;28;20532;-31
2022/10/17 04:04:35;;;;;;;1.40;1.30;;;;;;;23.14;60.64;98132.13;5048778;28;20208;-32
2022/10/17 04:07:01;;;;;;;1.60;1.50;;;;;;;23.14;60.72;98132.13;5043391;28;20212;-31
2022/10/17 04:09:28;;;;;;;1.40;1.30;;;;;;;23.14;60.83;98134.69;5047584;28;20232;-31
2022/10/17 04:11:54;;;;;;;1.40;1.30;;;;;;;23.13;60.59;98133.84;5046526;28;20295;-31
2022/10/17 04:14:21;;;;;;;1.40;1.30;;;;;;;23.14;60.69;98137.25;5053214;28;20196;-31
2022/10/17 04:16:47;;;;;;;1.33;1.23;;;;;;;23.13;60.65;98138.97;5048544;28;20213;-31
2022/10/17 04:19:14;;;;;;;1.40;1.30;;;;;;;23.13;60.64;98140.66;5046389;28;20231;-32
2022/10/17 04:21:40;;;;;;;1.33;1.20;;;;;;;23.14;60.55;98144.94;5043476;28;20487;-31
2022/10/17 04:24:09;;;;;;;1.50;1.40;;;;;;;23.11;60.67;98139.72;5043984;28;20206;-31
2022/10/17 04:26:35;;;;;;;1.40;1.30;;;;;;;23.14;60.73;98144.94;5032023;28;20695;-31
2022/10/17 04:29:02;;;;;;;1.50;1.40;;;;;;;23.14;60.58;98150.97;5036419;28;20236;-31
2022/10/17 04:31:28;;;;;;;1.50;1.40;;;;;;;23.14;60.55;98145.84;5045217;28;20680;-31
2022/10/17 04:33:55;;;;;;;1.40;1.30;;;;;;;23.14;60.74;98140.72;5034362;28;20216;-31
2022/10/17 04:36:22;;;;;;;1.40;1.30;;;;;;;23.14;60.76;98138.16;5042673;28;20689;-31
2022/10/17 04:38:48;;;;;;;1.50;1.40;;;;;;;23.15;60.64;98142.44;5041274;28;20220;-31
2022/10/17 04:41:16;;;;;;;1.60;1.50;;;;;;;23.15;60.53;98147.56;5053692;28;20588;-31
2022/10/17 04:43:43;;;;;;;1.40;1.30;;;;;;;23.14;60.69;98145.84;5059676;28;20675;-31
2022/10/17 04:46:15;;;;;;;1.30;1.20;;;;;;;23.14;60.46;98150.09;5046004;28;20232;-32
2022/10/17 04:48:42;;;;;;;1.23;1.23;;;;;;;23.15;60.81;98149.28;5060431;28;20220;-31
2022/10/17 04:51:16;;;;;;;1.43;1.33;;;;;;;23.15;60.96;98144.16;5045462;28;20196;-31
2022/10/17 04:53:46;;;;;;;1.60;1.50;;;;;;;23.16;60.86;98156.16;5053833;28;20609;-31
2022/10/17 04:56:14;;;;;;;1.60;1.50;;;;;;;23.15;60.72;98156.97;5055928;28;20588;-31
2022/10/17 04:58:41;;;;;;;1.57;1.40;;;;;;;23.14;60.71;98148.41;5055835;28;20224;-31
2022/10/17 05:01:09;;;;;;;1.60;1.50;;;;;;;23.15;60.73;98155.25;5049223;28;20625;-32
2022/10/17 05:03:36;;;;;;;1.40;1.30;;;;;;;23.12;60.82;98142.34;5059491;28;20212;-31
2022/10/17 05:06:06;;;;;;;1.47;1.30;;;;;;;23.09;60.73;98144.81;5038988;28;21388;-31
2022/10/17 05:08:33;;;;;;;1.17;1.17;;;;;;;23.15;60.71;98159.53;5050241;28;20220;-31
2022/10/17 05:11:00;;;;;;;1.20;1.20;;;;;;;23.14;60.77;98156.09;5051356;28;20200;-31
2022/10/17 05:13:26;;;;;;;1.43;1.33;;;;;;;23.15;60.81;98164.66;5056300;28;20200;-31
2022/10/17 05:15:53;;;;;;;1.40;1.30;;;;;;;23.15;60.79;98157.81;5055759;28;20204;-31
2022/10/17 05:18:19;;;;;;;1.47;1.30;;;;;;;23.16;60.81;98156.16;5056838;28;20216;-31
2022/10/17 05:20:46;;;;;;;1.60;1.50;;;;;;;23.16;60.53;98163.84;5056278;28;20228;-32
2022/10/17 05:23:12;;;;;;;1.13;1.13;;;;;;;23.16;60.47;98163.84;5042385;28;20200;-31
2022/10/17 05:25:39;;;;;;;1.40;1.30;;;;;;;23.16;60.76;98159.59;5050071;28;20204;-31
2022/10/17 05:28:05;;;;;;;1.97;1.40;;;;;;;23.16;60.80;98163.84;5051726;28;20225;-31
2022/10/17 05:30:33;;;;;;;1.37;1.27;;;;;;;23.17;60.62;98160.44;5047888;28;21247;-31
2022/10/17 05:33:02;;;;;;;1.40;1.30;;;;;;;23.16;60.64;98164.72;5042320;28;20208;-31
2022/10/17 05:35:28;;;;;;;1.70;1.57;;;;;;;23.16;60.62;98163.84;5047017;28;20206;-31
2022/10/17 05:37:55;;;;;;;6.60;3.07;;;;;;;23.17;60.79;98165.56;5057988;28;20228;-31
2022/10/17 05:40:21;;;;;;;4.73;3.53;;;;;;;23.17;60.21;98165.56;5051995;28;20200;-32
2022/10/17 05:42:48;;;;;;;3.63;3.30;;;;;;;23.17;59.78;98165.56;5051168;28;20201;-31
2022/10/17 05:45:15;;;;;;;5.63;4.27;;;;;;;23.09;59.26;98154.19;5048605;28;20292;-32
2022/10/17 05:47:41;;;;;;;5.40;4.47;;;;;;;23.14;58.92;98176.59;5040889;28;20720;-31
2022/10/17 05:50:08;;;;;;;7.00;3.90;;;;;;;23.16;58.95;98182.66;5045191;28;20201;-31
2022/10/17 05:52:34;;;;;;;5.40;4.33;;;;;;;23.16;59.00;98185.22;5058711;28;21518;-31
2022/10/17 05:55:02;;;;;;;4.43;4.03;;;;;;;23.15;59.23;98183.47;5046904;28;20200;-31
2022/10/17 05:57:28;;;;;;;4.90;4.37;;;;;;;23.15;59.49;98190.31;5042475;28;20222;-31
2022/10/17 05:59:55;;;;;;;4.70;4.20;;;;;;;23.15;59.45;98191.16;5039179;28;20202;-32
2022/10/17 06:02:21;;;;;;;8.40;4.77;;;;;;;23.16;59.34;98200.63;5047050;28;20224;-31
2022/10/17 06:04:48;;;;;;;5.87;4.60;;;;;;;23.10;59.00;98192.72;5066001;28;20211;-32
2022/10/17 06:07:15;;;;;;;7.87;5.50;;;;;;;23.15;58.79;98196.28;5059148;28;20204;-31
2022/10/17 06:09:42;;;;;;;6.33;5.67;;;;;;;23.11;58.65;98199.59;5056826;28;20225;-31
2022/10/17 06:12:08;;;;;;;6.87;5.20;;;;;;;23.14;58.56;98206.50;5060013;28;20196;-31
2022/10/17 06:14:35;;;;;;;8.07;4.93;;;;;;;23.10;58.84;98195.28;5060560;28;20724;-31
2022/10/17 06:17:01;;;;;;;5.53;4.73;;;;;;;23.13;59.04;98199.63;5043822;28;20220;-31
2022/10/17 06:19:28;;;;;;;6.47;4.67;;;;;;;23.12;58.85;98197.91;5054460;28;20710;-31
2022/10/17 06:21:54;;;;;;;6.97;5.63;;;;;;;23.11;59.27;98201.25;5054987;28;20259;-31
2022/10/17 06:24:21;;;;;;;13.80;6.83;;;;;;;23.07;59.54;98217.38;5044850;28;20215;-31
2022/10/17 06:26:48;;;;;;;9.23;6.33;;;;;;;23.10;59.40;98218.38;5055669;28;20208;-31
2022/10/17 06:29:15;;;;;;;9.60;6.27;;;;;;;23.09;59.43;98220.84;5047887;28;20740;-32
2022/10/17 06:31:41;;;;;;;8.73;6.17;;;;;;;23.07;59.62;98220.78;5040080;28;20200;-31
2022/10/17 06:34:08;;;;;;;7.73;5.93;;;;;;;23.09;59.27;98226.84;5050326;28;20205;-31
2022/10/17 06:36:34;;;;;;;9.67;5.73;;;;;;;23.09;59.69;98226.84;5036855;28;20354;-31
2022/10/17 06:39:01;;;;;;;8.00;5.30;;;;;;;23.05;59.73;98225.00;5047488;28;20228;-31
2022/10/17 06:41:27;;;;;;;9.23;5.90;;;;;;;23.08;59.83;98232.81;5044369;28;20699;-31
2022/10/17 06:43:54;;;;;;;6.70;5.70;;;;;;;23.08;59.86;98234.50;5040016;28;20591;-31
2022/10/17 06:46:20;;;;;;;7.40;5.33;;;;;;;23.09;59.84;98236.22;5040271;28;20201;-31
2022/10/17 06:48:47;;;;;;;6.77;5.00;;;;;;;23.09;59.72;98233.66;5041572;28;20225;-31
2022/10/17 06:51:13;;;;;;;7.53;5.07;;;;;;;23.09;59.68;98231.09;5046505;28;20473;-31
2022/10/17 06:53:40;;;;;;;6.83;5.00;;;;;;;23.09;59.99;98236.22;5052765;28;20204;-31
2022/10/17 06:56:07;;;;;;;8.23;5.23;;;;;;;23.08;60.05;98237.94;5059610;28;20461;-31
2022/10/17 06:58:35;;;;;;;6.63;4.83;;;;;;;23.10;59.87;98243.13;5051090;28;20750;-32
2022/10/17 07:01:04;;;;;;;6.60;4.70;;;;;;;23.09;59.89;98246.47;5048730;28;20235;-31
2022/10/17 07:03:30;;;;;;;7.23;4.57;;;;;;;23.10;59.91;98249.13;5043789;28;20239;-31
2022/10/17 07:05:57;;;;;;;5.03;4.40;;;;;;;23.10;60.01;98248.25;5043606;28;20209;-31
2022/10/17 07:08:24;;;;;;;7.20;4.60;;;;;;;23.11;60.04;98257.69;5035844;28;20221;-31
2022/10/17 07:10:50;;;;;;;5.27;4.20;;;;;;;23.10;59.83;98267.09;5045956;28;20212;-31
2022/10/17 07:13:17;;;;;;;6.00;4.70;;;;;;;23.09;60.04;98264.44;5036938;28;20205;-31
2022/10/17 07:15:44;;;;;;;5.83;4.63;;;;;;;23.10;60.24;98279.91;5034355;28;20208;-31
2022/10/17 07:18:10;;;;;;;5.83;5.03;;;;;;;23.11;60.24;98279.06;5049480;28;20260;-31
2022/10/17 07:20:37;;;;;;;6.97;5.60;;;;;;;23.11;60.16;98279.06;5038412;28;20217;-31
2022/10/17 07:23:03;;;;;;;8.60;6.07;;;;;;;23.10;59.98;98279.91;5045762;28;20221;-31
2022/10/17 07:25:30;;;;;;;12.60;6.20;;;;;;;23.11;59.83;98284.19;5043497;28;20216;-31
2022/10/17 07:28:01;;;;;;;8.97;5.87;;;;;;;23.11;59.86;98284.19;5047008;28;20253;-31
2022/10/17 07:30:27;;;;;;;9.10;6.10;;;;;;;23.08;60.06;98275.53;5045196;28;20197;-31
2022/10/17 07:32:54;;;;;;;6.73;5.50;;;;;;;23.11;60.22;98285.88;5040988;28;20639;-31
2022/10/17 07:35:20;;;;;;;7.10;5.40;;;;;;;23.11;59.59;98278.19;5044689;28;20403;-32
2022/10/17 07:37:47;;;;;;;5.90;5.20;;;;;;;23.11;60.06;98279.06;5049259;28;20225;-31
2022/10/17 07:40:13;;;;;;;7.80;5.67;;;;;;;23.10;60.13;98279.03;5044448;28;20227;-31
2022/10/17 07:42:40;;;;;;;6.47;4.67;;;;;;;23.10;60.20;98281.59;5041840;28;20226;-31
2022/10/17 07:45:07;;;;;;;7.13;5.47;;;;;;;23.08;60.00;98283.22;5039278;28;20767;-31
2022/10/17 07:47:36;;;;;;;6.00;4.97;;;;;;;23.10;60.24;98286.72;5044126;28;20248;-31
2022/10/17 07:50:03;;;;;;;8.37;4.97;;;;;;;23.11;60.18;98291.00;5053916;28;20209;-31
2022/10/17 07:52:30;;;;;;;5.63;4.93;;;;;;;23.10;60.21;98286.72;5043650;28;20201;-32
2022/10/17 07:54:57;;;;;;;5.67;5.00;;;;;;;23.10;60.18;98299.53;5044217;28;20197;-31
2022/10/17 07:57:24;;;;;;;6.10;4.80;;;;;;;23.09;60.07;98298.66;5039754;28;20201;-31
2022/10/17 07:59:51;;;;;;;6.40;4.63;;;;;;;23.10;60.13;98299.53;5046547;28;20236;-31
2022/10/17 08:02:22;;;;;;;11.30;5.60;;;;;;;23.11;60.16;98306.41;5044415;28;20221;-31
2022/10/17 08:04:50;;;;;;;5.27;4.60;;;;;;;23.10;60.25;98307.22;5043461;28;20284;-31
2022/10/17 08:07:18;;;;;;;6.23;4.53;;;;;;;23.10;60.11;98299.53;5044800;28;20211;-31
2022/10/17 08:09:52;;;;;;;7.07;4.97;;;;;;;23.10;60.25;98300.41;5046621;28;20208;-31
2022/10/17 08:12:19;;;;;;;8.10;4.63;;;;;;;23.11;60.34;98307.28;5041512;28;20208;-31
2022/10/17 08:14:46;;;;;;;5.57;4.60;;;;;;;23.12;60.10;98314.13;5039968;28;20201;-31
2022/10/17 08:17:13;;;;;;;4.60;4.17;;;;;;;23.12;60.14;98320.97;5046027;28;20204;-31
2022/10/17 08:19:40;;;;;;;6.50;4.80;;;;;;;23.11;60.44;98311.53;5045525;28;20235;-31
2022/10/17 08:22:06;;;;;;;4.77;4.20;;;;;;;23.10;60.40;98312.34;5045692;28;20351;-31
2022/10/17 08:24:33;;;;;;;5.47;4.00;;;;;;;23.12;60.08;98313.28;5043669;28;20606;-32
2022/10/17 08:26:59;;;;;;;6.53;4.30;;;;;;;23.11;60.43;98317.53;5044846;28;20203;-31
2022/10/17 08:29:26;;;;;;;6.17;4.60;;;;;;;23.12;59.72;98320.97;5046300;28;20232;-31
2022/10/17 08:31:52;;;;;;;5.27;4.37;;;;;;;23.12;60.15;98316.72;5046617;28;20223;-32
2022/10/17 08:34:26;;;;;;;5.70;4.47;;;;;;;23.12;60.07;98306.44;5045034;28;20520;-32
2022/10/17 08:36:53;;;;;;;5.87;3.93;;;;;;;23.13;60.22;98308.22;5054951;28;20200;-31
2022/10/17 08:39:20;;;;;;;4.43;4.00;;;;;;;23.12;60.12;98306.44;5040885;28;20228;-31
2022/10/17 08:42:04;;;;;;;4.63;4.20;;;;;;;23.12;60.18;98296.19;5036643;28;20221;-32
2022/10/17 08:45:08;;;;;;;4.70;4.23;;;;;;;23.13;60.10;98297.06;5051968;28;20686;-31
2022/10/17 08:47:41;;;;;;;6.97;4.50;;;;;;;23.05;60.11;98280.53;5043070;28;20193;-32
2022/10/17 08:50:24;;;;;;;4.30;3.90;;;;;;;23.09;60.34;98287.50;5051395;28;20204;-32
2022/10/17 08:52:53;;;;;;;4.90;4.23;;;;;;;23.08;60.50;98296.03;5052945;28;20188;-31
2022/10/17 08:55:37;;;;;;;6.43;4.20;;;;;;;23.13;60.33;98310.78;5027559;28;20204;-31
2022/10/17 08:58:14;;;;;;;4.70;3.97;;;;;;;23.12;60.23;98319.28;5030448;28;20225;-31
2022/10/17 09:01:01;;;;;;;4.60;4.10;;;;;;;23.09;60.45;98314.03;5036738;28;20574;-31
2022/10/17 09:03:28;;;;;;;4.43;3.80;;;;;;;23.14;60.55;98324.44;5036408;28;21071;-31
2022/10/17 09:06:02;;;;;;;4.40;4.00;;;;;;;23.13;60.31;98320.16;5037125;28;20561;-32
2022/10/17 09:08:40;;;;;;;4.13;3.73;;;;;;;23.13;60.47;98323.59;5042598;28;20239;-31
2022/10/17 09:11:14;;;;;;;5.57;4.23;;;;;;;23.12;60.29;98326.13;5028671;28;20227;-31
2022/10/17 09:14:42;;;;;;;4.00;3.50;;;;;;;23.13;60.36;98335.53;5042911;28;20589;-32
2022/10/17 09:17:17;;;;;;;3.93;3.53;;;;;;;23.13;60.41;98331.28;5023300;28;20258;-31
2022/10/17 09:20:09;;;;;;;4.83;3.63;;;;;;;23.13;60.37;98325.28;5012828;28;20228;-31
2022/10/17 09:22:49;;;;;;;3.70;3.40;;;;;;;22.60;60.44;98238.78;5037777;28;20592;-31
2022/10/17 09:25:16;;;;;;;4.10;3.70;;;;;;;23.13;60.66;98331.28;5018173;28;20315;-32
2022/10/17 09:28:09;;;;;;;3.63;3.33;;;;;;;23.13;60.41;98338.09;5045119;28;20217;-31
2022/10/17 09:30:38;;;;;;;4.43;3.77;;;;;;;23.13;60.24;98333.88;5036952;28;20212;-31
2022/10/17 09:33:24;;;;;;;5.97;4.00;;;;;;;23.13;60.50;98327.84;5039329;28;20196;-31
2022/10/17 09:36:16;;;;;;;4.13;3.60;;;;;;;23.14;60.33;98342.41;5040503;28;20655;-31
2022/10/17 09:38:51;;;;;;;7.17;3.83;;;;;;;23.13;60.33;98332.97;5019473;28;20224;-31
2022/10/17 09:41:39;;;;;;;3.90;3.50;;;;;;;23.13;60.25;98340.66;5044463;28;20216;-31
2022/10/17 09:44:20;;;;;;;4.00;3.60;;;;;;;23.14;60.30;98340.72;5046575;28;20255;-31
2022/10/17 09:47:09;;;;;;;4.00;3.60;;;;;;;23.13;60.16;98348.38;5045273;28;20254;-31
2022/10/17 09:49:37;;;;;;;4.10;3.47;;;;;;;23.13;60.28;98340.66;5053923;28;20217;-31
2022/10/17 09:52:18;;;;;;;3.97;3.57;;;;;;;23.12;60.34;98337.22;5049131;28;20202;-31
2022/10/17 09:54:49;;;;;;;3.37;3.03;;;;;;;23.10;60.20;98325.19;5036778;28;20197;-31
2022/10/17 09:57:17;;;;;;;4.20;3.47;;;;;;;23.13;60.23;98336.44;5031555;28;20212;-32
2022/10/17 09:59:46;;;;;;;3.77;3.23;;;;;;;23.11;60.25;98329.47;5047932;28;20221;-31
2022/10/17 10:02:12;;;;;;;3.30;2.97;;;;;;;23.13;60.22;98328.72;5033000;28;20256;-31
2022/10/17 10:05:03;;;;;;;4.70;3.00;;;;;;;23.13;60.48;98333.88;5027919;28;20812;-31
2022/10/17 10:07:36;;;;;;;3.43;3.00;;;;;;;23.14;60.39;98335.59;5035017;28;20213;-32
2022/10/17 10:10:05;;;;;;;3.80;3.17;;;;;;;23.11;60.49;98335.50;5039573;28;20755;-31
2022/10/17 10:12:36;;;;;;;3.57;3.20;;;;;;;23.14;60.47;98332.16;5036472;28;20211;-32
2022/10/17 10:15:30;;;;;;;4.63;3.40;;;;;;;23.14;60.52;98333.03;5039920;28;20209;-31
2022/10/17 10:17:56;;;;;;;5.13;3.70;;;;;;;23.15;60.65;98332.19;5054852;28;20224;-32
2022/10/17 10:20:29;;;;;;;8.40;4.23;;;;;;;23.14;60.53;98327.00;5056308;28;20208;-31
2022/10/17 10:23:17;;;;;;;4.60;3.50;;;;;;;23.15;60.45;98324.50;5057924;28;20223;-31
2022/10/17 10:25:55;;;;;;;4.47;3.43;;;;;;;23.13;60.48;98310.78;5039921;28;20201;-31
2022/10/17 10:28:29;;;;;;;4.80;3.40;;;;;;;23.12;60.57;98329.53;5033443;28;20224;-32
2022/10/17 10:30:57;;;;;;;4.63;3.40;;;;;;;23.15;60.32;98327.06;5033598;28;20230;-32
2022/10/17 10:33:27;;;;;;;5.33;3.87;;;;;;;23.16;60.27;98330.53;5029796;28;20427;-31
2022/10/17 10:36:00;;;;;;;3.87;3.07;;;;;;;23.14;60.45;98315.06;5037470;28;20569;-31
2022/10/17 10:38:33;;;;;;;4.17;3.43;;;;;;;23.17;60.54;98329.69;5035670;28;20269;-32
2022/10/17 10:41:09;;;;;;;5.03;3.43;;;;;;;23.17;60.35;98322.00;5049623;28;20219;-31
2022/10/17 10:43:40;;;;;;;4.73;3.80;;;;;;;23.17;60.45;98322.88;5042750;28;20216;-31
2022/10/17 10:46:26;;;;;;;4.67;3.47;;;;;;;23.18;60.57;98323.75;5051288;28;20200;-31
2022/10/17 10:48:58;;;;;;;4.47;3.43;;;;;;;23.18;60.63;98318.63;5036490;28;20228;-32
2022/10/17 10:51:39;;;;;;;4.57;3.63;;;;;;;23.18;60.50;98316.06;5040621;28;20208;-31
2022/10/17 10:54:15;;;;;;;5.17;3.20;;;;;;;23.18;60.29;98318.63;5026368;28;20630;-31
2022/10/17 10:56:43;;;;;;;4.30;3.20;;;;;;;23.13;60.49;98310.78;5031206;28;20208;-32
2022/10/17 10:59:40;;;;;;;3.97;3.17;;;;;;;23.19;60.46;98312.69;5026212;28;20265;-32
2022/10/17 11:02:09;;;;;;;4.37;3.27;;;;;;;23.19;60.43;98312.69;5036978;28;20216;-32
2022/10/17 11:04:52;;;;;;;5.57;3.40;;;;;;;23.19;60.51;98316.13;5024404;28;20540;-32
2022/10/17 11:07:42;;;;;;;4.43;3.30;;;;;;;23.19;60.34;98310.13;5040990;28;20209;-31
2022/10/17 11:10:25;;;;;;;4.50;3.40;;;;;;;23.20;60.33;98316.97;5028508;28;20209;-31
2022/10/17 11:12:56;;;;;;;5.20;3.73;;;;;;;23.19;60.27;98315.25;5041949;28;20201;-31
2022/10/17 11:15:53;;;;;;;5.13;3.33;;;;;;;23.18;60.50;98298.97;5027280;28;20209;-31
2022/10/17 11:18:34;;;;;;;4.67;3.40;;;;;;;23.16;60.26;98287.81;5029995;28;20228;-31
2022/10/17 11:21:14;;;;;;;5.03;3.53;;;;;;;23.20;60.09;98302.47;5039494;28;20718;-31
2022/10/17 11:23:43;;;;;;;5.17;3.50;;;;;;;23.11;60.39;98281.63;5046293;28;20227;-31
2022/10/17 11:26:14;;;;;;;6.50;3.50;;;;;;;23.19;60.31;98303.31;5034035;28;20481;-31
2022/10/17 11:28:40;;;;;;;5.90;3.50;;;;;;;23.11;60.33;98289.34;5022090;28;20232;-31
2022/10/17 11:31:13;;;;;;;7.17;3.13;;;;;;;23.19;60.50;98313.56;5031064;28;20241;-31
2022/10/17 11:33:47;;;;;;;6.57;3.67;;;;;;;23.12;60.30;98287.66;5036026;28;20200;-31
2022/10/17 11:36:15;;;;;;;6.27;3.40;;;;;;;23.19;60.19;98300.75;5038564;28;20204;-32
2022/10/17 11:39:01;;;;;;;6.73;3.43;;;;;;;23.20;60.13;98299.03;5037057;28;20223;-31
2022/10/17 11:41:43;;;;;;;6.50;3.63;;;;;;;23.12;60.38;98282.53;5020974;28;20214;-32
2022/10/17 11:44:38;;;;;;;5.10;3.03;;;;;;;23.20;60.49;98289.66;5018392;28;20231;-31
2022/10/17 11:47:29;;;;;;;4.10;3.33;;;;;;;23.20;60.15;98287.09;5031218;28;20205;-31
2022/10/17 11:50:24;;;;;;;5.23;3.40;;;;;;;23.20;60.16;98289.66;5037081;28;20208;-31
2022/10/17 11:53:16;;;;;;;4.33;3.30;;;;;;;23.20;60.17;98281.97;5037382;28;20205;-31